createdAt,value
2019-01-29T00:01:56.360Z,96155.11
2019-01-29T00:07:35.360Z,96161.53
2019-01-29T00:12:34.737Z,96163.91
2019-01-29T00:17:31.158Z,96170.42
2019-01-29T00:22:33.322Z,96175.30
2019-01-29T00:27:34.884Z,96178.38
2019-01-29T00:32:30.707Z,96173.34
2019-01-29T00:37:26.581Z,96177.99
2019-01-29T00:42:23.901Z,96181.55
2019-01-29T00:47:19.771Z,96186.72
2019-01-29T00:52:16.420Z,96179.49
2019-01-29T00:57:12.488Z,96181.98
2019-01-29T01:02:09.229Z,96188.61
2019-01-29T01:07:05.066Z,96193.02
2019-01-29T01:12:00.855Z,96203.25
2019-01-29T01:16:56.763Z,96211.55
2019-01-29T01:21:54.633Z,96217.01
2019-01-29T01:26:50.439Z,96212.59
2019-01-29T01:31:46.260Z,96213.51
2019-01-29T01:36:41.993Z,96219.80
2019-01-29T01:41:37.744Z,96230.73
2019-01-29T01:46:33.438Z,96243.92
2019-01-29T01:51:29.200Z,96245.14
2019-01-29T01:56:25.049Z,96250.59
2019-01-29T02:01:20.795Z,96255.88
2019-01-29T02:06:16.644Z,96255.67
2019-01-29T02:11:12.385Z,96257.34
2019-01-29T02:16:11.253Z,96259.41
2019-01-29T02:21:07.025Z,96264.35
2019-01-29T02:26:02.742Z,96260.47
2019-01-29T02:30:58.591Z,96266.72
2019-01-29T02:35:54.349Z,96272.92
2019-01-29T02:40:53.244Z,96279.83
2019-01-29T02:45:55.667Z,96281.87
2019-01-29T02:50:51.339Z,96288.70
2019-01-29T02:55:47.077Z,96290.08
2019-01-29T03:00:42.808Z,96291.95
2019-01-29T03:05:38.543Z,96291.63
2019-01-29T03:10:34.321Z,96288.05
2019-01-29T03:15:32.876Z,96287.84
2019-01-29T03:20:29.874Z,96287.28
2019-01-29T03:25:25.652Z,96298.41
2019-01-29T03:30:21.729Z,96309.91
2019-01-29T03:35:17.720Z,96305.38
2019-01-29T03:40:17.117Z,96313.39
2019-01-29T03:45:15.914Z,96312.86
2019-01-29T03:50:14.533Z,96321.20
2019-01-29T03:55:11.000Z,96327.03
2019-01-29T04:00:11.519Z,96324.72
2019-01-29T04:05:07.696Z,96323.22
2019-01-29T04:10:03.746Z,96324.56
2019-01-29T04:14:59.511Z,96330.72
2019-01-29T04:19:55.261Z,96328.42
2019-01-29T04:25:07.375Z,96337.91
2019-01-29T04:30:03.052Z,96333.33
2019-01-29T04:34:58.839Z,96333.36
2019-01-29T04:39:54.638Z,96337.23
2019-01-29T04:44:50.351Z,96340.19
2019-01-29T04:49:46.088Z,96341.63
2019-01-29T04:54:41.835Z,96343.77
2019-01-29T04:59:37.642Z,96343.84
2019-01-29T05:04:33.550Z,96341.58
2019-01-29T05:09:40.223Z,96334.72
2019-01-29T05:14:43.259Z,96340.66
2019-01-29T05:19:47.087Z,96339.88
2019-01-29T05:24:44.819Z,96340.55
2019-01-29T05:29:42.128Z,96342.59
2019-01-29T05:34:39.669Z,96344.59
2019-01-29T05:39:35.781Z,96343.47
2019-01-29T05:44:34.397Z,96346.30
2019-01-29T05:49:30.302Z,96360.52
2019-01-29T05:54:27.395Z,96358.86
2019-01-29T05:59:23.185Z,96362.98
2019-01-29T06:04:18.872Z,96367.44
2019-01-29T06:09:14.668Z,96363.73
2019-01-29T06:14:10.623Z,96367.23
2019-01-29T06:19:06.512Z,96372.39
2019-01-29T06:24:02.393Z,96369.56
2019-01-29T06:28:58.220Z,96366.73
2019-01-29T06:33:54.025Z,96364.91
2019-01-29T06:38:49.987Z,96372.69
2019-01-29T06:43:45.878Z,96375.80
2019-01-29T06:48:42.668Z,96369.93
2019-01-29T06:53:38.571Z,96381.95
2019-01-29T06:58:35.241Z,96375.58
2019-01-29T07:03:31.047Z,96382.23
2019-01-29T07:08:26.802Z,96388.37
2019-01-29T07:13:22.652Z,96381.64
2019-01-29T07:18:43.425Z,96385.34
2019-01-29T07:23:39.479Z,96380.64
2019-01-29T07:28:35.216Z,96386.17
2019-01-29T07:33:30.995Z,96388.59
2019-01-29T07:38:26.794Z,96395.32
2019-01-29T07:43:22.813Z,96393.25
2019-01-29T07:48:18.574Z,96399.06
2019-01-29T07:53:15.558Z,96401.44
2019-01-29T07:58:11.234Z,96398.45
2019-01-29T08:03:07.174Z,96393.95
2019-01-29T08:08:03.028Z,96393.95
2019-01-29T08:13:01.707Z,96389.76
2019-01-29T08:17:57.477Z,96397.79
2019-01-29T08:22:53.377Z,96390.98
2019-01-29T08:27:49.169Z,96380.90
2019-01-29T08:32:45.203Z,96385.63
2019-01-29T08:37:43.554Z,96388.45
2019-01-29T08:42:39.403Z,96389.81
2019-01-29T08:47:35.334Z,96385.09
2019-01-29T08:52:31.076Z,96386.69
2019-01-29T08:57:26.972Z,96386.48
2019-01-29T09:02:22.737Z,96392.55
2019-01-29T09:07:18.601Z,96389.83
2019-01-29T09:12:14.453Z,96386.25
2019-01-29T09:17:10.215Z,96379.34
2019-01-29T09:22:06.177Z,96366.98
2019-01-29T09:27:01.899Z,96353.80
2019-01-29T09:31:57.747Z,96350.48
2019-01-29T09:36:53.519Z,96343.29
2019-01-29T09:41:49.295Z,96330.05
2019-01-29T09:46:45.319Z,96332.34
2019-01-29T09:51:41.066Z,96334.27
2019-01-29T09:56:36.865Z,96333.38
2019-01-29T10:01:32.790Z,96330.16
2019-01-29T10:13:43.828Z,96318.23
2019-01-29T10:19:09.774Z,96317.63
2019-01-29T10:30:58.893Z,96287.80
2019-01-29T10:36:47.896Z,96276.97
2019-01-29T10:42:36.905Z,96267.72
2019-01-29T10:48:40.682Z,96249.48
2019-01-29T10:54:26.515Z,96239.76
2019-01-29T11:00:24.510Z,96228.34
2019-01-29T11:12:32.526Z,96204.03
2019-01-29T11:18:16.733Z,96194.27
2019-01-29T11:37:29.203Z,96137.50
2019-01-29T11:49:00.243Z,96107.92
2019-01-29T12:06:34.499Z,96083.08
2019-01-29T12:12:56.145Z,96068.04
2019-01-29T12:18:19.742Z,96053.07
2019-01-29T13:33:57.607Z,95922.55
2019-01-29T13:38:53.579Z,95910.53
2019-01-29T13:43:49.385Z,95899.28
2019-01-29T13:48:45.205Z,95890.40
2019-01-29T13:53:41.155Z,95887.73
2019-01-29T14:05:14.935Z,95879.13
2019-01-29T14:12:48.686Z,95868.44
2019-01-29T14:16:13.823Z,95868.86
2019-01-29T14:21:09.702Z,95867.12
2019-01-29T14:26:08.477Z,95856.58
2019-01-29T14:32:57.332Z,95847.83
2019-01-29T14:44:26.388Z,95835.65
2019-01-29T14:49:22.339Z,95831.09
2019-01-29T14:54:18.445Z,95820.73
2019-01-29T14:59:31.559Z,95816.70
2019-01-29T15:04:34.432Z,95817.80
2019-01-29T15:09:40.627Z,95804.17
2019-01-29T15:14:36.480Z,95792.22
2019-01-29T15:19:47.673Z,95789.84
2019-01-29T15:25:17.775Z,95777.75
2019-01-29T15:30:28.032Z,95778.88
2019-01-29T15:35:55.507Z,95774.27
2019-01-29T15:41:29.507Z,95765.95
2019-01-29T15:46:54.058Z,95758.76
2019-01-29T15:51:56.409Z,95754.24
2019-01-29T15:57:14.279Z,95741.33
2019-01-29T16:14:57.118Z,95709.20
2019-01-29T16:20:30.967Z,95694.72
2019-01-29T16:25:39.172Z,95684.02
2019-01-29T16:37:54.648Z,95669.36
2019-01-29T16:43:12.966Z,95654.33
2019-01-29T16:48:00.544Z,95647.48
2019-01-29T16:52:56.682Z,95638.29
2019-01-29T16:59:04.842Z,95632.73
